Terminal Aerodrome Forecast
Issued by NWS

Home | Current Version | Previous Version | Text Only | Print | Product List | Glossary On
Versions: 1 2 3 4 5 6 7 8 9 10 11 12 13 14 15 16 17 18 19 20 21 22
648
FTUS42 KFFC 291937 AAB
TAFPDK
TAF AMD
KPDK 291937Z 2920/3018 26006KT P6SM BKN050 BKN100
      TEMPO 2920/2922 VRB10G25KT 4SM -TSRA BR BKN025CB
     FM300000 27005KT P6SM VCTS SCT050CB BKN120
     FM300300 26002KT P6SM BKN050
     FM301200 27004KT P6SM BKN015
     FM301600 27007KT P6SM BKN025 PROB30 3017/3018 4SM -TSRA
      BKN020CB=

USA.gov is the U.S. government's official web portal to all federal, state and local government web resources and services.